METAR Data
IDs: Format: Raw Decoded Include TAF

Data at: 2347 UTC 25 Oct 2021

K6R3 252335Z AUTO 00000KT 5SM BR CLR 26/25 A2993 RMK AO2 T02640254
K6R3 252315Z AUTO 00000KT 7SM CLR 28/26 A2993 RMK AO2 T02770256
K6R3 252255Z AUTO 00000KT 7SM CLR 29/26 A2992 RMK AO2 T02890257
K6R3 252235Z AUTO 00000KT 10SM CLR 30/25 A2992 RMK AO2 T03000252
K6R3 252215Z AUTO 00000KT 10SM CLR 31/24 A2992 RMK AO2 T03070236
K6R3 252155Z AUTO 00000KT 7SM CLR 31/23 A2992 RMK AO2 T03090232
K6R3 252135Z AUTO 00000KT 10SM CLR 32/24 A2992 RMK AO2 T03150237
K6R3 252115Z AUTO 00000KT 7SM CLR 31/23 A2993 RMK AO2 T03080231
K6R3 252055Z AUTO 00000KT 10SM SCT026 31/23 A2993 RMK AO2 T03100233
K6R3 252035Z AUTO 00000KT 7SM BKN026 31/23 A2994 RMK AO2 T03100233
K6R3 252015Z AUTO 00000KT 10SM OVC024 31/24 A2994 RMK AO2 T03060236
K6R3 251955Z AUTO 00000KT 10SM SCT024 31/24 A2994 RMK AO2 T03110240
K6R3 251935Z AUTO 00000KT 10SM CLR 31/24 A2995 RMK AO2 T03100241
K6R3 251915Z AUTO 00000KT 10SM SCT022 30/24 A2995 RMK AO2 T02990236
K6R3 251855Z AUTO 00000KT 7SM SCT024 29/24 A2996 RMK AO2 T02900241
K6R3 251835Z AUTO 32005KT 10SM OVC022 30/24 A2997 RMK AO2 T02950236
K6R3 251815Z AUTO 00000KT 10SM OVC022 29/24 A2998 RMK AO2 T02860239
K6R3 251755Z AUTO 00000KT 7SM OVC020 28/24 A2998 RMK AO2 T02840238 10285 20222
K6R3 251735Z AUTO 00000KT 7SM OVC018 29/24 A2998 RMK AO2 T02850242
K6R3 251715Z AUTO 00000KT 4SM HZ OVC018 28/24 A2999 RMK AO2 T02780240
K6R3 251655Z AUTO 00000KT 7SM OVC016 28/24 A3000 RMK AO2 T02770243
K6R3 251635Z AUTO 00000KT 7SM OVC016 28/24 A3000 RMK AO2 T02760240
K6R3 251615Z AUTO 33003KT 10SM OVC016 27/24 A3000 RMK AO2 T02720242
K6R3 251555Z AUTO 00000KT 7SM OVC016 27/25 A3000 RMK AO2 T02700246
K6R3 251535Z AUTO 29003KT 10SM OVC016 27/25 A3000 RMK AO2 T02660245
K6R3 251515Z AUTO 00000KT 10SM OVC016 27/25 A3000 RMK AO2 T02670251
K6R3 251455Z AUTO 00000KT 7SM OVC016 25/25 A3000 RMK AO2 T02520252
K6R3 251435Z AUTO 00000KT 7SM OVC016 25/25 A3000 RMK AO2 T02460246
K6R3 251415Z AUTO 00000KT 5SM BR OVC016 25/25 A3000 RMK AO2 T02450245
K6R3 251355Z AUTO 00000KT 4SM BR OVC016 24/24 A2999 RMK AO2 T02380238
K6R3 251335Z AUTO 00000KT M1/4SM FG OVC001 23/23 A2998 RMK AO2 T02310231
K6R3 251315Z AUTO 00000KT M1/4SM FG OVC001 22/22 A2997 RMK AO2 T02220222
K6R3 251255Z AUTO 00000KT M1/4SM FG OVC001 22/22 A2997 RMK AO2 T02230223
K6R3 251235Z AUTO 00000KT 1SM BR BKN003 OVC017 22/22 A2996 RMK AO2 T02230223
K6R3 251215Z AUTO 00000KT 1 1/4SM BR SCT003 OVC015 23/23 A2995 RMK AO2 T02260226
K6R3 251155Z AUTO 00000KT 3SM BR OVC015 23/23 A2995 RMK AO2 T02300230 10236 20225
K6R3 251135Z AUTO 00000KT 2SM BR SCT003 OVC013 23/23 A2995 RMK AO2 T02300230
K6R3 251115Z AUTO 00000KT 3SM BR SCT003 BKN013 23/23 A2994 RMK AO2 T02300230
K6R3 251055Z AUTO 00000KT 4SM BR BKN005 OVC013 24/24 A2993 RMK AO2 T02360236
K6R3 251035Z AUTO 00000KT 5SM BR OVC005 24/24 A2993 RMK AO2 T02360236
K6R3 251015Z AUTO 00000KT 4SM BR OVC003 23/23 A2992 RMK AO2 T02320232
K6R3 250955Z AUTO 00000KT 3SM BR BKN003 BKN007 23/23 A2992 RMK AO2 T02270227
K6R3 250935Z AUTO 00000KT 2 1/2SM BR SCT005 23/23 A2992 RMK AO2 VIS 2V3 T02300230
K6R3 250915Z AUTO 00000KT 4SM BR OVC005 23/23 A2991 RMK AO2 T02300230
K6R3 250855Z AUTO 00000KT 1/2SM FG OVC003 23/23 A2992 RMK AO2 T02270227
K6R3 250835Z AUTO 00000KT 1/4SM FG OVC003 23/23 A2992 RMK AO2 T02260226
K6R3 250815Z AUTO 00000KT 2 1/2SM BR BKN003 BKN010 23/23 A2992 RMK AO2 T02260226
K6R3 250755Z AUTO 00000KT 1 3/4SM BR SCT014 23/23 A2992 RMK AO2 VIS 1/2V4 T02290229
K6R3 250735Z AUTO 00000KT 5SM BR OVC014 23/23 A2992 RMK AO2 T02340234
K6R3 250715Z AUTO 00000KT 5SM BR OVC014 24/24 A2993 RMK AO2 T02350235
K6R3 250655Z AUTO 00000KT 7SM OVC014 24/24 A2992 RMK AO2 T02350235
K6R3 250635Z AUTO 00000KT 7SM OVC014 24/24 A2993 RMK AO2 T02350235
K6R3 250615Z AUTO 00000KT 7SM OVC014 23/23 A2992 RMK AO2 T02340234
K6R3 250555Z AUTO 00000KT 7SM SCT002 OVC016 23/23 A2992 RMK AO2 T02330233 10252 20223 403150190
K6R3 250535Z AUTO 00000KT 5SM BR OVC002 23/23 A2991 RMK AO2 T02310231
K6R3 250515Z AUTO 00000KT 5SM BR OVC002 23/23 A2991 RMK AO2 T02270227
K6R3 250455Z AUTO 00000KT 5SM BR OVC004 23/23 A2990 RMK AO2 T02280228
K6R3 250435Z AUTO 00000KT 3SM BR BKN004 23/23 A2991 RMK AO2 T02250225
K6R3 250415Z AUTO 00000KT 5SM BR CLR 23/23 A2991 RMK AO2 T02250225
K6R3 250355Z AUTO 00000KT 7SM CLR 23/23 A2991 RMK AO2 T02290229
K6R3 250335Z AUTO 00000KT 7SM CLR 23/23 A2990 RMK AO2 T02310231
K6R3 250315Z AUTO 00000KT 10SM CLR 23/23 A2989 RMK AO2 T02320232
K6R3 250255Z AUTO 18003KT 7SM SCT045 23/23 A2989 RMK AO2 T02330233
K6R3 250235Z AUTO 00000KT 7SM CLR 24/24 A2990 RMK AO2 T02390236
K6R3 250215Z AUTO 17004KT 7SM CLR 24/24 A2988 RMK AO2 T02410238
K6R3 250155Z AUTO 16003KT 10SM CLR 24/24 A2987 RMK AO2 T02420239
K6R3 250135Z AUTO 16003KT 10SM CLR 24/24 A2987 RMK AO2 T02400238
K6R3 250115Z AUTO 00000KT 10SM SCT049 24/24 A2986 RMK AO2 T02410240
K6R3 250055Z AUTO 00000KT 10SM CLR 24/24 A2986 RMK AO2 T02400240
K6R3 250035Z AUTO 00000KT 7SM CLR 24/24 A2985 RMK AO2 T02430243
K6R3 250015Z AUTO 00000KT 10SM CLR 25/24 A2985 RMK AO2 T02450244
K6R3 242355Z AUTO 00000KT 7SM CLR 25/25 A2984 RMK AO2 T02530246 10315 20253
K6R3 242335Z AUTO 00000KT 7SM CLR 26/25 A2984 RMK AO2 T02610246
K6R3 242315Z AUTO 00000KT 7SM SCT028 SCT034 28/24 A2983 RMK AO2 T02770241
K6R3 242255Z AUTO 00000KT 7SM SCT034 29/24 A2983 RMK AO2 T02860240
K6R3 242235Z AUTO 00000KT 7SM SCT034 29/24 A2983 RMK AO2 T02870239
K6R3 242215Z AUTO 00000KT 7SM BKN034 29/23 A2983 RMK AO2 T02940228
K6R3 242155Z AUTO 00000KT 10SM SCT032 31/23 A2983 RMK AO2 T03050225
K6R3 242135Z AUTO 16003KT 10SM BKN032 31/23 A2983 RMK AO2 T03090229
K6R3 242115Z AUTO 19006KT 7SM SCT032 31/22 A2983 RMK AO2 T03110220
K6R3 242055Z AUTO 16004KT 7SM CLR 31/23 A2983 RMK AO2 T03130225
K6R3 242035Z AUTO 19004KT 7SM SCT031 31/22 A2983 RMK AO2 T03100221
K6R3 242015Z AUTO 00000KT 10SM SCT031 SCT040 31/22 A2984 RMK AO2 T03090221
K6R3 241955Z AUTO 19006KT 10SM SCT029 SCT040 31/22 A2985 RMK AO2 T03130221
K6R3 241935Z AUTO 17005KT 10SM SCT029 BKN037 31/23 A2985 RMK AO2 T03100227
K6R3 241915Z AUTO 00000KT 10SM SCT029 SCT034 SCT070 31/23 A2986 RMK AO2 T03050229
K6R3 241855Z AUTO 20006KT 7SM SCT027 SCT032 SCT040 31/23 A2987 RMK AO2 T03110227
K6R3 241835Z AUTO 18009KT 10SM BKN027 BKN038 30/23 A2987 RMK AO2 T03010230
K6R3 241815Z AUTO 17005KT 7SM BKN025 BKN030 BKN038 30/23 A2988 RMK AO2 T02950233
K6R3 241755Z AUTO 18007KT 5SM HZ SCT025 BKN032 BKN049 29/23 A2989 RMK AO2 T02890233 10300 20200
K6R3 241735Z AUTO 18008KT 7SM SCT023 BKN032 OVC080 29/24 A2990 RMK AO2 T02940238
K6R3 241715Z AUTO 18003KT 7SM BKN019 OVC026 28/25 A2991 RMK AO2 T02790245
K6R3 241655Z AUTO 17006KT 7SM BKN019 OVC024 27/24 A2992 RMK AO2 T02740240
K6R3 241635Z AUTO 17006KT 7SM BKN017 BKN070 27/24 A2993 RMK AO2 T02720239
K6R3 241615Z AUTO 18007KT 10SM BKN015 BKN060 27/24 A2993 RMK AO2 T02670243
K6R3 241555Z AUTO 17004KT 7SM SCT015 BKN060 OVC075 26/24 A2993 RMK AO2 T02610240
K6R3 241535Z AUTO 00000KT 5SM BR SCT060 OVC075 25/24 A2992 RMK AO2 T02470236
K6R3 241515Z AUTO 00000KT 7SM OVC060 24/24 A2992 RMK AO2 LTG DSNT SE T02420237
K6R3 241455Z AUTO 00000KT 7SM OVC060 23/23 A2992 RMK AO2 T02280228
K6R3 241435Z AUTO 00000KT 5SM BR OVC060 22/22 A2992 RMK AO2 T02220222
K6R3 241415Z AUTO 00000KT 5SM BR OVC060 22/22 A2991 RMK AO2 T02170217
K6R3 241355Z AUTO 00000KT 7SM OVC060 22/22 A2989 RMK AO2 LTG DSNT SE T02150215
K6R3 241335Z AUTO 00000KT 5SM BR OVC060 21/21 A2989 RMK AO2 LTG DSNT SE T02110211
K6R3 241315Z AUTO 00000KT 5SM BR BKN060 21/21 A2988 RMK AO2 T02060206
K6R3 241255Z AUTO 00000KT 5SM BR SCT060 20/20 A2989 RMK AO2 T02020202
K6R3 241235Z AUTO 00000KT 5SM BR CLR 20/20 A2989 RMK AO2 T02010201
K6R3 241215Z AUTO 00000KT 7SM CLR 21/21 A2989 RMK AO2 T02050205
K6R3 241155Z AUTO 00000KT 7SM CLR 21/21 A2988 RMK AO2 70048 T02050205 10205 20190